Time;durP1;ratioP1;P1;durP2;ratioP2;P2;SDS_P1;SDS_P2;PMS_P1;PMS_P2;Temp;Humidity;BMP_temperature;BMP_pressure;BME280_temperature;BME280_humidity;BME280_pressure;Samples;Min_cycle;Max_cycle;Signal;HPM_P1;HPM_P2
2023/04/10 00:01:49;;;;;;;62.27;41.10;;;5.90;71.60;;;;;;5092322;28;20123;-77
2023/04/10 00:04:15;;;;;;;58.77;40.87;;;5.90;71.60;;;;;;5104956;28;20195;-77
2023/04/10 00:06:41;;;;;;;60.97;41.13;;;5.90;71.60;;;;;;5095551;28;20058;-76
2023/04/10 00:09:09;;;;;;;58.70;40.97;;;5.90;71.60;;;;;;5073518;28;20424;-77
2023/04/10 00:11:35;;;;;;;62.47;41.17;;;5.80;71.60;;;;;;5091832;28;20461;-76
2023/04/10 00:14:00;;;;;;;63.13;42.73;;;5.80;71.50;;;;;;5090779;28;20078;-77
2023/04/10 00:16:26;;;;;;;59.73;41.40;;;5.80;71.60;;;;;;5061415;28;20418;-76
2023/04/10 00:18:52;;;;;;;61.40;42.03;;;5.70;71.60;;;;;;5070413;28;20407;-77
2023/04/10 00:21:17;;;;;;;62.57;42.17;;;5.70;71.60;;;;;;5074032;28;20378;-76
2023/04/10 00:23:43;;;;;;;61.90;42.20;;;5.60;71.70;;;;;;5076075;28;20090;-77
2023/04/10 00:26:09;;;;;;;60.37;43.10;;;5.60;71.60;;;;;;5056757;28;20045;-76
2023/04/10 00:28:37;;;;;;;64.73;43.23;;;5.60;71.70;;;;;;5080761;28;20122;-77
2023/04/10 00:31:04;;;;;;;64.27;43.50;;;5.60;71.70;;;;;;5058485;28;20449;-77
2023/04/10 00:33:29;;;;;;;69.10;43.97;;;5.60;71.80;;;;;;5101972;28;20044;-77
2023/04/10 00:35:55;;;;;;;62.40;43.83;;;5.50;71.80;;;;;;5060023;28;20058;-77
2023/04/10 00:38:21;;;;;;;65.13;44.70;;;5.50;71.80;;;;;;5075874;28;20051;-77
2023/04/10 00:40:47;;;;;;;68.37;44.67;;;5.50;71.80;;;;;;5085398;28;20102;-77
2023/04/10 00:43:13;;;;;;;67.53;44.63;;;5.40;71.90;;;;;;5088799;28;20044;-77
2023/04/10 00:45:39;;;;;;;68.70;45.13;;;5.30;71.90;;;;;;5069813;28;20060;-77
2023/04/10 00:48:06;;;;;;;68.57;47.67;;;5.30;72.00;;;;;;5062807;28;20136;-77
2023/04/10 00:50:32;;;;;;;68.37;45.17;;;5.30;72.00;;;;;;5091651;28;20105;-77
2023/04/10 00:52:58;;;;;;;68.20;45.83;;;5.20;72.10;;;;;;5078798;28;20064;-77
2023/04/10 00:55:24;;;;;;;67.10;45.57;;;5.10;72.10;;;;;;5071427;28;20048;-77
2023/04/10 00:57:51;;;;;;;66.13;46.03;;;5.10;72.10;;;;;;5043587;28;20051;-77
2023/04/10 01:00:17;;;;;;;70.00;45.97;;;5.00;72.10;;;;;;5091167;28;20134;-77
2023/04/10 01:02:42;;;;;;;70.17;47.37;;;5.00;72.10;;;;;;5085289;28;20067;-77
2023/04/10 01:05:10;;;;;;;68.47;46.97;;;5.00;72.10;;;;;;5103304;28;20044;-77
2023/04/10 01:08:30;;;;;;;68.27;45.57;;;5.00;72.20;;;;;;5074669;28;20497;-77
2023/04/10 01:11:20;;;;;;;73.40;47.90;;;4.90;72.50;;;;;;5045065;28;20049;-77
2023/04/10 01:14:00;;;;;;;67.27;46.90;;;4.90;72.50;;;;;;5072994;28;20494;-77
2023/04/10 01:16:39;;;;;;;70.50;48.03;;;4.90;72.50;;;;;;5067948;28;21102;-76
2023/04/10 01:19:24;;;;;;;68.07;47.27;;;4.90;72.30;;;;;;5085911;28;20044;-77
2023/04/10 01:21:53;;;;;;;69.37;47.67;;;4.90;72.30;;;;;;5092726;28;20096;-77
2023/04/10 01:24:34;;;;;;;70.33;47.87;;;4.90;72.30;;;;;;5076416;28;20090;-77
2023/04/10 01:27:19;;;;;;;76.05;48.90;;;4.90;72.50;;;;;;5051542;28;20127;-77
2023/04/10 01:29:50;;;;;;;77.80;49.83;;;4.90;72.40;;;;;;5093964;28;20062;-77
2023/04/10 01:32:19;;;;;;;70.40;49.87;;;4.80;72.30;;;;;;5069748;28;20127;-77
2023/04/10 01:34:49;;;;;;;79.87;50.50;;;4.80;72.20;;;;;;5074115;28;20048;-77
2023/04/10 01:37:29;;;;;;;72.70;50.43;;;4.80;72.20;;;;;;5076700;28;20059;-77
2023/04/10 01:40:01;;;;;;;71.90;49.53;;;4.80;72.30;;;;;;5071576;28;20052;-76
2023/04/10 01:42:31;;;;;;;73.13;51.67;;;4.70;72.30;;;;;;5077107;28;20036;-77
2023/04/10 01:44:58;;;;;;;70.50;48.57;;;4.70;72.30;;;;;;5112355;28;20242;-77
2023/04/10 01:47:25;;;;;;;75.83;52.07;;;4.70;72.30;;;;;;5059838;28;20044;-77
2023/04/10 01:49:53;;;;;;;81.00;52.77;;;4.70;72.30;;;;;;5059466;28;20047;-77
2023/04/10 01:52:20;;;;;;;78.13;52.80;;;4.70;72.40;;;;;;5069758;28;20059;-77
2023/04/10 01:54:47;;;;;;;75.97;52.53;;;4.70;72.40;;;;;;5073629;28;20044;-77
2023/04/10 01:57:14;;;;;;;80.90;53.37;;;4.70;72.40;;;;;;5053502;28;20369;-77
2023/04/10 01:59:41;;;;;;;79.13;53.87;;;4.70;72.40;;;;;;5073163;28;20052;-77
2023/04/10 02:02:06;;;;;;;79.87;53.87;;;4.70;72.40;;;;;;5062922;28;20067;-77
2023/04/10 02:04:32;;;;;;;77.37;53.87;;;4.70;72.50;;;;;;5079686;28;20393;-77
2023/04/10 02:07:15;;;;;;;77.77;52.30;;;4.70;72.50;;;;;;5091159;28;20405;-77
2023/04/10 02:09:53;;;;;;;77.90;53.37;;;4.70;72.50;;;;;;5077861;28;20111;-77
2023/04/10 02:12:25;;;;;;;84.30;54.13;;;4.70;72.50;;;;;;5090745;28;20052;-77
2023/04/10 02:14:54;;;;;;;82.87;53.67;;;4.70;72.50;;;;;;5093581;28;20180;-77
2023/04/10 02:17:25;;;;;;;80.73;54.57;;;4.70;72.40;;;;;;5088453;27;20472;-77
2023/04/10 02:19:53;;;;;;;67.03;42.72;;;4.70;72.40;;;;;;5081414;28;20051;-77
2023/04/10 02:22:19;;;;;;;78.00;54.23;;;4.70;72.50;;;;;;5075597;28;20043;-77
2023/04/10 02:24:45;;;;;;;84.97;56.10;;;4.70;72.40;;;;;;5071163;28;20101;-77
2023/04/10 02:27:11;;;;;;;83.30;54.47;;;4.70;72.40;;;;;;5060153;28;20438;-77
2023/04/10 02:29:37;;;;;;;84.63;56.63;;;4.70;72.40;;;;;;5093905;28;20047;-77
2023/04/10 02:32:03;;;;;;;82.67;54.50;;;4.60;72.50;;;;;;5116951;27;20413;-76
2023/04/10 02:34:29;;;;;;;84.33;55.23;;;4.60;72.50;;;;;;5091158;28;20063;-77
2023/04/10 02:36:55;;;;;;;81.63;55.60;;;4.60;72.50;;;;;;5057729;28;20044;-77
2023/04/10 02:39:20;;;;;;;81.17;55.77;;;4.50;72.50;;;;;;5056723;28;20040;-77
2023/04/10 02:41:46;;;;;;;83.93;57.13;;;4.50;72.60;;;;;;5040044;28;20044;-77
2023/04/10 02:44:12;;;;;;;85.10;56.23;;;4.50;72.60;;;;;;5090407;28;20072;-77
2023/04/10 02:46:38;;;;;;;87.23;58.23;;;4.50;72.70;;;;;;5058313;28;20462;-77
2023/04/10 02:49:05;;;;;;;84.80;55.00;;;4.50;72.60;;;;;;5086896;28;20078;-77
2023/04/10 02:51:34;;;;;;;88.47;57.13;;;4.50;72.70;;;;;;5075739;28;20047;-77
2023/04/10 02:54:00;;;;;;;86.47;57.60;;;4.50;72.60;;;;;;5092139;28;20058;-77
2023/04/10 02:56:26;;;;;;;86.67;57.10;;;4.50;72.70;;;;;;5079732;28;20508;-77
2023/04/10 02:58:51;;;;;;;85.90;58.13;;;4.50;72.80;;;;;;5088152;28;20052;-77
2023/04/10 03:01:17;;;;;;;85.40;56.43;;;4.50;72.70;;;;;;5092773;28;20081;-77
2023/04/10 03:03:43;;;;;;;87.13;57.00;;;4.50;72.70;;;;;;5090911;28;20059;-77
2023/04/10 03:06:09;;;;;;;87.27;58.93;;;4.50;72.60;;;;;;5049063;28;20249;-76
2023/04/10 03:08:35;;;;;;;88.67;57.33;;;4.50;72.70;;;;;;5077264;28;20055;-77
2023/04/10 03:11:01;;;;;;;88.30;59.60;;;4.50;72.70;;;;;;5076297;28;20453;-77
2023/04/10 03:13:26;;;;;;;85.30;56.63;;;4.40;72.70;;;;;;5109027;28;20502;-77
2023/04/10 03:15:52;;;;;;;84.50;56.87;;;4.40;72.70;;;;;;5091521;28;20047;-77
2023/04/10 03:18:18;;;;;;;84.13;57.03;;;4.40;72.70;;;;;;5089555;27;20485;-77
2023/04/10 03:20:43;;;;;;;82.10;55.77;;;4.40;72.60;;;;;;5061802;28;20050;-77
2023/04/10 03:23:09;;;;;;;82.73;55.83;;;4.40;72.50;;;;;;5054851;28;20430;-77
2023/04/10 03:25:35;;;;;;;82.30;55.87;;;4.40;72.50;;;;;;5090919;28;20043;-77
2023/04/10 03:28:01;;;;;;;85.43;55.57;;;4.50;72.30;;;;;;5056042;28;20409;-77
2023/04/10 03:30:27;;;;;;;79.87;55.30;;;4.50;72.20;;;;;;5110758;28;20466;-76
2023/04/10 03:32:53;;;;;;;80.57;55.33;;;4.50;72.10;;;;;;5101708;28;20122;-76
2023/04/10 03:35:19;;;;;;;78.87;55.30;;;4.50;72.10;;;;;;5070135;28;20413;-77
2023/04/10 03:37:44;;;;;;;85.90;58.70;;;4.40;72.00;;;;;;5058287;28;20129;-77
2023/04/10 03:40:11;;;;;;;82.07;54.70;;;4.40;72.00;;;;;;5092258;28;20047;-77
2023/04/10 03:42:36;;;;;;;81.67;56.03;;;4.40;72.00;;;;;;5074451;28;20497;-77
2023/04/10 03:45:03;;;;;;;81.10;56.50;;;4.30;72.00;;;;;;5075552;28;20050;-77
2023/04/10 03:47:33;;;;;;;82.33;55.67;;;4.30;72.00;;;;;;5075489;28;20134;-77
2023/04/10 03:49:59;;;;;;;82.40;55.17;;;4.20;72.00;;;;;;5083380;28;20419;-77
2023/04/10 03:52:27;;;;;;;84.80;56.37;;;4.20;72.00;;;;;;5076517;28;20052;-77
2023/04/10 03:54:55;;;;;;;85.13;59.60;;;4.10;72.00;;;;;;5045412;28;20489;-77
2023/04/10 03:57:21;;;;;;;88.57;58.23;;;4.10;72.10;;;;;;5038169;28;20104;-77
2023/04/10 03:59:47;;;;;;;85.97;58.30;;;4.00;72.20;;;;;;5055380;28;20052;-77
2023/04/10 04:02:13;;;;;;;82.30;56.40;;;4.00;72.10;;;;;;5050210;27;20085;-77
2023/04/10 04:04:39;;;;;;;79.87;55.80;;;4.00;72.20;;;;;;5102952;28;20077;-77
2023/04/10 04:07:05;;;;;;;86.33;57.37;;;4.00;72.20;;;;;;5075445;28;20524;-77
2023/04/10 04:09:30;;;;;;;85.10;56.90;;;3.90;72.30;;;;;;5074404;28;20047;-77
2023/04/10 04:11:56;;;;;;;86.67;59.77;;;3.90;72.30;;;;;;5055452;28;20083;-77
2023/04/10 04:14:22;;;;;;;89.20;59.23;;;3.90;72.30;;;;;;5070175;28;20438;-77
2023/04/10 04:16:49;;;;;;;87.20;60.13;;;3.90;72.40;;;;;;5058737;28;20409;-76
2023/04/10 04:19:14;;;;;;;87.53;59.00;;;3.90;72.50;;;;;;5088747;28;20043;-77
2023/04/10 04:21:40;;;;;;;87.37;57.07;;;3.90;72.50;;;;;;5055307;28;20387;-77
2023/04/10 04:24:06;;;;;;;93.37;60.53;;;3.90;72.50;;;;;;5053385;28;20454;-77
2023/04/10 04:26:32;;;;;;;90.73;60.20;;;3.90;72.50;;;;;;5076636;28;20096;-77
2023/04/10 04:28:58;;;;;;;88.33;58.37;;;3.90;72.70;;;;;;5071688;28;20051;-77
2023/04/10 04:31:24;;;;;;;87.93;59.43;;;3.90;72.80;;;;;;5092624;28;20474;-77
2023/04/10 04:33:49;;;;;;;90.93;59.50;;;3.90;72.80;;;;;;5093946;28;20074;-77
2023/04/10 04:36:15;;;;;;;89.83;58.50;;;3.90;72.90;;;;;;5080522;28;20048;-76
2023/04/10 04:38:41;;;;;;;86.27;58.03;;;4.00;72.90;;;;;;5086708;28;20054;-77
2023/04/10 04:41:07;;;;;;;85.53;58.97;;;4.00;73.00;;;;;;5091682;28;20256;-77
2023/04/10 04:43:33;;;;;;;85.60;58.17;;;4.10;73.00;;;;;;5073501;28;20105;-77
2023/04/10 04:45:58;;;;;;;86.03;58.20;;;4.20;73.00;;;;;;5074156;28;20060;-77
2023/04/10 04:48:24;;;;;;;91.27;59.60;;;4.30;72.90;;;;;;5074349;28;20048;-77
2023/04/10 04:50:50;;;;;;;85.00;57.93;;;4.40;72.70;;;;;;5065006;28;20044;-77
2023/04/10 04:53:16;;;;;;;83.97;57.43;;;4.40;72.60;;;;;;5097523;28;20052;-77
2023/04/10 04:55:41;;;;;;;86.87;58.20;;;4.40;72.60;;;;;;5092886;28;20040;-77
2023/04/10 04:58:07;;;;;;;85.13;59.33;;;4.50;72.50;;;;;;5051653;28;20187;-77
2023/04/10 05:00:32;;;;;;;86.40;58.07;;;4.50;72.60;;;;;;5075295;28;20097;-77
2023/04/10 05:02:58;;;;;;;90.00;59.47;;;4.50;72.60;;;;;;5049688;28;20072;-77
2023/04/10 05:05:24;;;;;;;86.33;59.13;;;4.50;72.60;;;;;;5095298;28;20050;-77
2023/04/10 05:07:50;;;;;;;88.13;59.37;;;4.50;72.70;;;;;;5078792;28;20046;-77
2023/04/10 05:10:15;;;;;;;86.77;58.13;;;4.50;72.60;;;;;;5057513;28;20040;-77
2023/04/10 05:12:42;;;;;;;84.23;60.67;;;4.50;72.70;;;;;;5093993;28;20056;-77
2023/04/10 05:15:08;;;;;;;86.87;59.33;;;4.50;72.70;;;;;;5077754;28;20047;-77
2023/04/10 05:17:34;;;;;;;85.93;58.53;;;4.50;72.80;;;;;;5077915;28;20486;-77
2023/04/10 05:20:00;;;;;;;86.13;59.93;;;4.50;72.80;;;;;;5094222;28;20043;-77
2023/04/10 05:22:26;;;;;;;88.07;60.93;;;4.70;72.80;;;;;;5088728;28;20117;-77
2023/04/10 05:24:53;;;;;;;92.43;60.07;;;4.70;73.00;;;;;;5079982;28;20054;-77
2023/04/10 05:27:20;;;;;;;84.93;59.63;;;4.70;73.00;;;;;;5095916;28;20123;-77
2023/04/10 05:29:46;;;;;;;82.67;58.57;;;4.90;73.20;;;;;;5112863;28;20116;-77
2023/04/10 05:32:12;;;;;;;84.27;58.37;;;4.90;73.20;;;;;;5070697;28;20477;-77
2023/04/10 05:34:38;;;;;;;82.50;58.30;;;5.00;73.00;;;;;;5065064;28;20064;-77
2023/04/10 05:37:04;;;;;;;77.10;54.93;;;5.10;73.00;;;;;;5061551;28;20509;-77
2023/04/10 05:39:29;;;;;;;80.47;54.73;;;5.20;73.20;;;;;;5094122;28;20469;-77
2023/04/10 05:41:55;;;;;;;76.33;53.63;;;5.30;73.10;;;;;;5077395;28;20402;-77
2023/04/10 05:44:21;;;;;;;80.10;54.67;;;5.50;72.90;;;;;;5111259;28;20135;-77
2023/04/10 05:46:46;;;;;;;71.93;52.77;;;5.50;72.60;;;;;;5096739;28;20085;-76
2023/04/10 05:49:12;;;;;;;74.20;52.00;;;5.60;72.40;;;;;;5078602;28;20073;-77
2023/04/10 05:51:38;;;;;;;78.53;50.20;;;5.80;72.20;;;;;;5071386;28;20051;-77
2023/04/10 05:54:03;;;;;;;75.10;51.07;;;5.90;72.10;;;;;;5092937;28;20048;-77
2023/04/10 05:56:29;;;;;;;67.53;48.40;;;6.00;71.90;;;;;;5064147;28;20150;-76
2023/04/10 05:58:55;;;;;;;70.27;47.67;;;6.10;71.60;;;;;;5091823;28;20112;-77
2023/04/10 06:01:20;;;;;;;68.53;49.23;;;6.20;71.30;;;;;;5111147;28;20040;-77
2023/04/10 06:03:46;;;;;;;66.43;49.03;;;6.30;71.20;;;;;;5093188;28;20048;-77
2023/04/10 06:06:12;;;;;;;65.07;45.37;;;6.40;70.80;;;;;;5076002;28;20225;-77
2023/04/10 06:08:38;;;;;;;64.83;46.53;;;6.50;70.70;;;;;;5093082;28;20463;-77
2023/04/10 06:11:04;;;;;;;63.63;45.20;;;6.60;70.50;;;;;;5092709;28;20103;-77
2023/04/10 06:13:31;;;;;;;63.10;45.87;;;6.70;70.50;;;;;;5073056;28;20119;-77
2023/04/10 06:15:56;;;;;;;64.90;43.27;;;6.80;70.10;;;;;;5090529;28;20047;-77
2023/04/10 06:18:22;;;;;;;64.07;44.47;;;6.90;70.00;;;;;;5119265;27;20386;-77
2023/04/10 06:20:48;;;;;;;61.83;42.90;;;7.00;69.50;;;;;;5091352;28;20048;-76
2023/04/10 06:23:13;;;;;;;64.80;42.63;;;7.10;69.20;;;;;;5101495;28;20134;-77
2023/04/10 06:25:39;;;;;;;59.03;42.60;;;7.20;69.10;;;;;;5105421;28;20123;-77
2023/04/10 06:28:05;;;;;;;63.03;43.07;;;7.20;69.00;;;;;;5071370;28;20131;-77
2023/04/10 06:30:32;;;;;;;58.90;41.50;;;7.30;68.60;;;;;;5065060;28;20058;-77
2023/04/10 06:32:58;;;;;;;58.00;41.40;;;7.30;68.70;;;;;;5091480;28;20083;-76
2023/04/10 06:35:24;;;;;;;59.23;41.20;;;7.40;68.60;;;;;;5063362;28;20098;-77
2023/04/10 06:37:50;;;;;;;63.57;41.17;;;7.40;68.40;;;;;;5083562;28;20047;-77
2023/04/10 06:40:15;;;;;;;56.87;40.37;;;7.40;68.60;;;;;;5093081;28;20047;-76
2023/04/10 06:42:41;;;;;;;56.93;41.00;;;7.50;68.20;;;;;;5092759;28;20131;-77
2023/04/10 06:45:08;;;;;;;56.97;41.50;;;7.50;68.50;;;;;;5111525;28;20097;-77
2023/04/10 06:47:34;;;;;;;54.13;39.73;;;7.70;68.50;;;;;;5075450;28;20486;-77
2023/04/10 06:50:00;;;;;;;55.80;39.30;;;7.80;68.50;;;;;;5096411;28;20087;-77
2023/04/10 06:52:26;;;;;;;55.53;37.10;;;8.00;67.70;;;;;;5105757;28;20122;-77
2023/04/10 06:54:51;;;;;;;52.53;37.90;;;8.20;67.50;;;;;;5076079;28;20402;-77
2023/04/10 06:57:17;;;;;;;49.53;37.03;;;8.30;67.70;;;;;;5089759;28;20509;-77
2023/04/10 06:59:44;;;;;;;54.13;37.17;;;8.50;66.90;;;;;;5109080;28;20580;-77
2023/04/10 07:02:10;;;;;;;51.33;37.53;;;8.50;66.90;;;;;;5092062;28;20490;-77
2023/04/10 07:04:36;;;;;;;50.40;36.93;;;8.50;67.00;;;;;;5110710;28;20513;-77
2023/04/10 07:07:01;;;;;;;50.20;36.53;;;8.50;67.10;;;;;;5092502;28;20048;-77
2023/04/10 07:09:29;;;;;;;47.30;35.40;;;8.50;67.00;;;;;;5091218;28;20044;-78
2023/04/10 07:11:55;;;;;;;47.93;35.23;;;8.50;67.00;;;;;;5091171;28;20051;-77
2023/04/10 07:14:21;;;;;;;47.97;34.33;;;8.60;67.00;;;;;;5089647;28;20946;-77
2023/04/10 07:16:48;;;;;;;45.97;34.27;;;8.70;66.90;;;;;;5110437;27;20545;-77
2023/04/10 07:19:13;;;;;;;51.57;34.60;;;8.90;66.60;;;;;;5118403;27;20075;-77
2023/04/10 07:21:39;;;;;;;47.03;35.03;;;9.00;66.10;;;;;;5055818;28;20087;-77
2023/04/10 07:24:05;;;;;;;45.87;32.57;;;9.00;66.00;;;;;;5078163;28;20497;-77
2023/04/10 07:26:31;;;;;;;46.00;32.70;;;9.10;66.00;;;;;;5102892;28;20058;-77
2023/04/10 07:28:56;;;;;;;48.47;33.40;;;9.20;65.70;;;;;;5063469;28;20413;-77
2023/04/10 07:31:22;;;;;;;47.67;32.73;;;9.30;65.60;;;;;;5094080;27;20092;-77
2023/04/10 07:33:48;;;;;;;49.70;34.43;;;9.40;65.10;;;;;;5080682;28;20054;-78
2023/04/10 07:36:14;;;;;;;46.37;34.27;;;9.40;65.50;;;;;;5081044;28;20047;-76
2023/04/10 07:38:41;;;;;;;45.10;32.40;;;9.50;65.20;;;;;;5105636;28;20397;-77
2023/04/10 07:41:06;;;;;;;45.60;32.27;;;9.60;64.50;;;;;;5077374;28;20040;-77
2023/04/10 07:43:32;;;;;;;44.77;33.50;;;9.80;64.60;;;;;;5083820;28;20130;-77
2023/04/10 07:45:58;;;;;;;45.17;32.20;;;10.00;64.60;;;;;;5088571;28;20103;-77
2023/04/10 07:48:24;;;;;;;43.90;30.73;;;10.20;64.70;;;;;;5081241;28;20100;-76
2023/04/10 07:50:49;;;;;;;48.63;32.63;;;10.40;63.60;;;;;;5078947;28;20036;-77
2023/04/10 07:53:15;;;;;;;44.10;32.80;;;10.60;64.20;;;;;;5079872;28;20075;-76
2023/04/10 07:55:42;;;;;;;42.97;31.10;;;10.80;63.30;;;;;;5079798;28;20075;-77
2023/04/10 07:58:09;;;;;;;42.73;30.93;;;11.00;62.90;;;;;;5085692;28;20054;-76
2023/04/10 08:00:35;;;;;;;46.43;31.23;;;11.00;62.50;;;;;;5097051;28;20055;-77
2023/04/10 08:03:01;;;;;;;40.57;30.17;;;10.90;62.50;;;;;;5077399;28;20036;-77
2023/04/10 08:05:27;;;;;;;42.83;30.90;;;11.00;62.70;;;;;;5064840;28;20040;-77
2023/04/10 08:07:52;;;;;;;41.93;30.33;;;11.00;62.50;;;;;;5080091;28;20048;-77
2023/04/10 08:10:18;;;;;;;42.67;29.33;;;11.10;62.20;;;;;;5099124;28;20441;-77
2023/04/10 08:12:44;;;;;;;39.43;29.43;;;11.10;61.80;;;;;;5063311;28;20410;-78
2023/04/10 08:15:15;;;;;;;39.53;29.93;;;11.10;62.20;;;;;;5076610;28;20043;-75
2023/04/10 08:17:42;;;;;;;37.40;29.70;;;11.10;61.70;;;;;;4924832;28;20077;-78
2023/04/10 08:20:09;;;;;;;40.33;28.83;;;11.10;61.70;;;;;;5082385;28;20086;-77
2023/04/10 08:22:35;;;;;;;40.47;30.30;;;11.10;62.00;;;;;;5061436;28;20047;-77
2023/04/10 08:25:01;;;;;;;46.80;29.47;;;11.40;62.30;;;;;;5080820;28;20043;-77
2023/04/10 08:27:27;;;;;;;34.57;28.40;;;11.60;61.70;;;;;;5079281;28;20085;-76
2023/04/10 08:29:53;;;;;;;37.60;27.93;;;11.90;61.60;;;;;;5087848;28;20485;-77
2023/04/10 08:32:19;;;;;;;36.80;27.73;;;11.90;61.00;;;;;;5084284;28;20047;-77
2023/04/10 08:34:45;;;;;;;35.97;27.23;;;12.10;61.20;;;;;;5104519;28;20473;-77
2023/04/10 08:37:11;;;;;;;37.67;27.10;;;12.20;60.90;;;;;;5088858;28;20093;-77
2023/04/10 08:39:37;;;;;;;35.15;27.67;;;12.30;60.90;;;;;;5107558;28;20055;-78
2023/04/10 08:42:05;;;;;;;34.10;26.52;;;12.50;60.90;;;;;;5088784;28;20059;-77
2023/04/10 08:44:30;;;;;;;34.22;27.38;;;12.50;60.80;;;;;;5089933;28;20051;-77
2023/04/10 08:46:58;;;;;;;35.63;26.42;;;12.50;61.20;;;;;;5056511;28;20100;-77
2023/04/10 08:49:35;;;;;;;36.22;25.80;;;12.60;61.30;;;;;;5104318;28;20054;-76
2023/04/10 08:52:03;;;;;;;36.35;26.55;;;12.60;59.60;;;;;;5111913;28;20134;-78
2023/04/10 08:54:32;;;;;;;35.42;23.77;;;12.70;60.40;;;;;;5089691;28;20048;-77
2023/04/10 08:57:00;;;;;;;33.80;23.75;;;12.70;59.90;;;;;;5073689;28;20052;-77
2023/04/10 08:59:30;;;;;;;38.45;23.50;;;12.80;59.60;;;;;;5067544;28;81239;-77
2023/04/10 09:01:56;;;;;;;33.65;23.67;;;12.90;58.70;;;;;;5053809;28;20036;-77
2023/04/10 09:04:25;;;;;;;31.83;23.90;;;13.00;58.70;;;;;;5067417;28;20055;-77
2023/04/10 09:06:54;;;;;;;29.73;22.90;;;13.00;59.20;;;;;;5037595;28;20072;-77
2023/04/10 09:09:19;;;;;;;28.08;22.50;;;13.00;58.70;;;;;;5049182;28;20048;-76
2023/04/10 09:11:51;;;;;;;27.85;21.90;;;12.90;58.60;;;;;;5050736;28;20051;-76
2023/04/10 09:14:25;;;;;;;28.50;21.98;;;13.00;58.70;;;;;;5068695;28;20053;-77
2023/04/10 09:16:52;;;;;;;28.60;22.08;;;13.20;58.70;;;;;;5036640;28;20066;-77
2023/04/10 09:19:31;;;;;;;30.48;21.25;;;13.30;58.60;;;;;;5049257;28;20135;-77
2023/04/10 09:21:57;;;;;;;26.73;20.58;;;13.50;58.50;;;;;;5074062;28;20207;-77
2023/04/10 09:24:23;;;;;;;26.50;21.35;;;13.50;58.70;;;;;;5069715;28;20041;-77
2023/04/10 09:26:49;;;;;;;25.63;20.42;;;13.30;58.30;;;;;;5052853;28;20040;-77
2023/04/10 09:29:18;;;;;;;25.30;19.38;;;13.30;59.00;;;;;;5066982;28;20517;-77
2023/04/10 09:31:44;;;;;;;23.38;19.13;;;13.20;58.70;;;;;;5050353;28;20091;-77
2023/04/10 09:34:16;;;;;;;26.05;19.20;;;13.10;58.30;;;;;;5066737;28;20147;-76
2023/04/10 09:37:02;;;;;;;23.83;18.92;;;13.10;58.00;;;;;;5055186;28;20384;-76
2023/04/10 09:39:39;;;;;;;24.13;18.88;;;13.30;58.40;;;;;;5070896;28;20069;-77
2023/04/10 09:42:05;;;;;;;24.83;17.70;;;13.50;57.90;;;;;;5052978;28;20052;-77
2023/04/10 09:44:33;;;;;;;24.65;18.85;;;13.70;58.80;;;;;;5036568;28;20048;-76
2023/04/10 09:47:16;;;;;;;25.35;17.60;;;13.80;58.10;;;;;;5056583;28;20056;-77
2023/04/10 09:49:47;;;;;;;22.67;18.77;;;13.70;58.00;;;;;;5033795;28;20041;-77
2023/04/10 09:52:26;;;;;;;23.05;17.27;;;13.70;57.70;;;;;;5067949;28;20059;-77
2023/04/10 09:55:01;;;;;;;21.75;17.00;;;13.60;57.60;;;;;;5070590;28;20441;-76
2023/04/10 09:57:28;;;;;;;20.63;17.05;;;13.50;56.80;;;;;;5054877;28;20059;-77
2023/04/10 09:59:56;;;;;;;19.83;16.70;;;13.60;57.90;;;;;;5053441;28;20055;-76
2023/04/10 10:02:24;;;;;;;23.10;16.73;;;13.70;57.70;;;;;;5057134;28;25214;-76
2023/04/10 10:04:51;;;;;;;21.90;17.35;;;13.80;57.30;;;;;;5035633;28;20102;-76
2023/04/10 10:07:21;;;;;;;28.65;19.65;;;13.70;57.40;;;;;;5016576;28;20072;-77
2023/04/10 10:09:48;;;;;;;24.40;16.60;;;13.80;57.90;;;;;;5035478;28;20080;-76
2023/04/10 10:12:36;;;;;;;20.48;15.60;;;13.90;57.20;;;;;;5056027;28;20110;-76
2023/04/10 10:15:13;;;;;;;26.67;15.52;;;14.00;56.80;;;;;;5069202;28;20063;-76
2023/04/10 10:18:05;;;;;;;20.33;15.38;;;14.00;56.60;;;;;;5053615;28;20131;-76
2023/04/10 10:20:33;;;;;;;17.65;14.32;;;14.00;57.10;;;;;;5057841;28;20117;-76
2023/04/10 10:23:02;;;;;;;19.52;14.60;;;14.00;55.80;;;;;;5052375;28;20045;-77
2023/04/10 10:25:28;;;;;;;15.55;13.05;;;13.90;57.30;;;;;;5054402;28;20048;-76
2023/04/10 10:27:54;;;;;;;15.13;13.20;;;13.90;56.80;;;;;;5036164;28;20110;-78
2023/04/10 10:30:21;;;;;;;16.45;13.43;;;13.70;56.90;;;;;;5070670;28;20510;-77
2023/04/10 10:32:48;;;;;;;15.77;13.13;;;13.70;57.60;;;;;;5052232;28;20106;-77
2023/04/10 10:35:15;;;;;;;17.75;13.80;;;13.70;58.00;;;;;;5052612;28;20531;-77
2023/04/10 10:37:44;;;;;;;15.77;13.30;;;13.70;57.10;;;;;;5054978;28;20040;-76
2023/04/10 10:40:23;;;;;;;15.52;13.05;;;13.70;57.10;;;;;;5052422;28;20136;-77
2023/04/10 10:43:02;;;;;;;15.55;12.48;;;13.60;57.40;;;;;;5068985;28;20052;-77
2023/04/10 10:46:06;;;;;;;14.73;12.07;;;13.50;57.60;;;;;;5052612;28;20067;-77
2023/04/10 10:48:32;;;;;;;15.60;12.60;;;13.50;58.10;;;;;;5058189;28;20049;-76
2023/04/10 10:51:00;;;;;;;16.90;11.82;;;13.50;58.40;;;;;;5070142;28;20121;-77
2023/04/10 10:53:41;;;;;;;13.00;11.40;;;13.50;58.30;;;;;;5068322;28;20087;-76
2023/04/10 10:56:19;;;;;;;13.73;11.27;;;13.50;57.50;;;;;;5043345;28;20342;-76
2023/04/10 10:58:50;;;;;;;12.68;10.65;;;13.60;58.00;;;;;;5063467;28;20061;-76
2023/04/10 11:01:17;;;;;;;14.27;10.50;;;13.60;57.80;;;;;;5046239;28;20450;-76
2023/04/10 11:03:44;;;;;;;12.30;10.73;;;13.60;57.30;;;;;;5043862;28;20328;-76
2023/04/10 11:06:11;;;;;;;14.38;10.95;;;13.60;57.10;;;;;;4984766;28;20057;-76
2023/04/10 11:08:45;;;;;;;13.00;10.50;;;13.60;57.40;;;;;;5055441;28;20045;-77
2023/04/10 11:11:18;;;;;;;14.10;10.57;;;13.60;57.60;;;;;;4982467;28;20049;-77
2023/04/10 11:13:56;;;;;;;12.57;10.18;;;13.70;57.60;;;;;;5032744;28;20052;-77
2023/04/10 11:16:40;;;;;;;12.52;10.68;;;13.70;57.80;;;;;;5042670;28;20048;-77
2023/04/10 11:19:07;;;;;;;12.30;10.70;;;13.80;57.60;;;;;;5050930;28;20098;-77
2023/04/10 11:21:34;;;;;;;16.52;11.60;;;13.90;57.50;;;;;;5025461;28;20120;-77
2023/04/10 11:24:00;;;;;;;16.63;10.23;;;13.90;57.80;;;;;;5054672;28;20057;-76
2023/04/10 11:26:40;;;;;;;11.27;9.68;;;13.90;57.20;;;;;;5034997;28;20052;-76
2023/04/10 11:29:13;;;;;;;14.52;9.90;;;13.80;57.00;;;;;;5044208;28;20044;-76
2023/04/10 11:31:39;;;;;;;12.20;8.52;;;13.80;57.10;;;;;;5067225;28;20088;-76
2023/04/10 11:34:12;;;;;;;12.07;8.82;;;13.80;56.40;;;;;;5046913;28;20040;-76
2023/04/10 11:36:41;;;;;;;13.32;9.05;;;13.70;56.50;;;;;;5035313;28;20478;-77
2023/04/10 11:39:09;;;;;;;10.55;9.13;;;13.70;57.20;;;;;;5047672;28;20086;-76
2023/04/10 11:41:42;;;;;;;8.35;7.43;;;13.70;57.20;;;;;;5051370;28;20133;-76
2023/04/10 11:44:10;;;;;;;10.00;8.48;;;13.70;56.90;;;;;;5047065;28;20044;-77
2023/04/10 11:46:40;;;;;;;9.35;8.13;;;13.80;57.00;;;;;;5049115;28;20407;-77
2023/04/10 11:49:10;;;;;;;9.98;7.82;;;13.80;57.20;;;;;;5053762;28;20530;-76
2023/04/10 11:51:37;;;;;;;9.18;7.40;;;13.90;57.40;;;;;;5049091;28;20048;-76
2023/04/10 11:54:11;;;;;;;9.23;8.07;;;13.90;56.40;;;;;;5048529;28;20056;-76
2023/04/10 11:56:39;;;;;;;10.32;7.85;;;14.10;57.20;;;;;;5036566;28;20048;-76
2023/04/10 11:59:18;;;;;;;8.45;7.32;;;14.30;56.80;;;;;;5064387;28;20467;-76
2023/04/10 12:01:44;;;;;;;8.30;7.15;;;14.50;56.60;;;;;;5064968;28;20102;-76
2023/04/10 12:04:17;;;;;;;10.63;7.55;;;14.60;55.60;;;;;;5044976;28;20052;-76
2023/04/10 12:06:55;;;;;;;7.75;6.75;;;14.70;55.60;;;;;;5035645;28;20048;-76
2023/04/10 12:09:21;;;;;;;8.50;6.80;;;14.80;55.70;;;;;;5050006;28;20072;-77
2023/04/10 12:12:07;;;;;;;10.70;7.10;;;14.90;56.80;;;;;;5067779;28;20102;-77
2023/04/10 12:14:34;;;;;;;8.75;6.30;;;15.10;57.00;;;;;;5039916;28;20106;-77
2023/04/10 12:17:02;;;;;;;8.65;6.38;;;15.30;56.00;;;;;;5023699;28;20554;-76
2023/04/10 12:19:28;;;;;;;6.88;6.15;;;15.60;56.00;;;;;;5059021;28;20041;-77
2023/04/10 12:21:56;;;;;;;7.88;6.38;;;15.60;56.30;;;;;;5032534;28;20053;-76
2023/04/10 12:24:45;;;;;;;9.43;6.25;;;15.50;55.00;;;;;;5057537;28;20407;-77
2023/04/10 12:27:22;;;;;;;6.72;5.88;;;15.40;55.10;;;;;;5034157;28;20032;-76
2023/04/10 12:29:49;;;;;;;7.40;5.68;;;15.20;55.40;;;;;;5050901;28;20048;-76
2023/04/10 12:32:15;;;;;;;6.72;5.80;;;15.10;55.40;;;;;;5052943;28;20114;-77
2023/04/10 12:34:41;;;;;;;9.18;5.78;;;15.00;55.70;;;;;;5050222;28;20056;-76
2023/04/10 12:37:08;;;;;;;6.82;5.88;;;15.00;56.00;;;;;;5053453;28;20076;-76
2023/04/10 12:39:34;;;;;;;8.85;5.93;;;14.90;56.10;;;;;;5058858;28;20053;-76
2023/04/10 12:42:17;;;;;;;7.57;5.03;;;14.80;56.00;;;;;;5049780;28;20045;-77